createdAt,value
2022-11-01T00:00:01.121Z,58.43847656
2022-11-01T00:00:59.547Z,58.41699219
2022-11-01T00:01:54.134Z,58.16308594
2022-11-01T00:02:53.900Z,58.27734375
2022-11-01T00:03:48.285Z,58.38867188
2022-11-01T00:04:52.432Z,59.08691406
2022-11-01T00:05:48.594Z,58.734375
2022-11-01T00:06:50.421Z,58.98632813
2022-11-01T00:07:44.815Z,58.99902344
2022-11-01T00:08:45.936Z,58.82617188
2022-11-01T00:09:38.751Z,58.84765625
2022-11-01T00:10:40.195Z,58.57324219
2022-11-01T00:11:32.640Z,58.9296875
2022-11-01T00:12:34.687Z,59.16992188
2022-11-01T00:13:38.062Z,59.19726563
2022-11-01T00:15:16.467Z,59
2022-11-01T00:17:04.599Z,58.96679688
2022-11-01T00:17:47.543Z,59.12695313
2022-11-01T00:18:52.974Z,58.78613281
2022-11-01T00:19:50.805Z,58.8984375
2022-11-01T00:20:46.128Z,58.90332031
2022-11-01T00:21:49.698Z,59.31054688
2022-11-01T00:22:49.599Z,59.71582031
2022-11-01T00:23:44.736Z,59.90625
2022-11-01T00:24:46.386Z,60.24121094
2022-11-01T00:25:43.147Z,60.90332031
2022-11-01T00:26:45.039Z,61.57714844
2022-11-01T00:27:40.537Z,61.41308594
2022-11-01T00:28:44.607Z,61.84765625
2022-11-01T00:29:42.650Z,61.95898438
2022-11-01T00:30:45.495Z,62.40429688
2022-11-01T00:31:37.976Z,62.02832031
2022-11-01T00:32:41.063Z,62.3125
2022-11-01T00:33:32.774Z,62.56640625
2022-11-01T00:34:35.346Z,63.4453125
2022-11-01T00:35:29.551Z,63.02246094
2022-11-01T00:36:29.205Z,63.109375
2022-11-01T00:37:29.336Z,63.31542969
2022-11-01T00:38:28.761Z,63.58984375
2022-11-01T00:39:30.459Z,63.75292969
2022-11-01T00:40:29.638Z,63.76464844
2022-11-01T00:41:29.332Z,64.1875
2022-11-01T00:42:30.081Z,64.234375
2022-11-01T00:43:30.248Z,64.41894531
2022-11-01T00:44:31.633Z,64.72753906
2022-11-01T00:45:26.772Z,65.02441406
2022-11-01T00:46:30.770Z,65.38867188
2022-11-01T00:47:22.742Z,65.38867188
2022-11-01T00:48:24.717Z,65.41308594
2022-11-01T00:49:16.848Z,65.02441406
2022-11-01T00:50:18.815Z,65.08203125
2022-11-01T00:51:22.860Z,65.17578125
2022-11-01T00:52:26.984Z,65.06152344
2022-11-01T00:53:20.419Z,65.19628906
2022-11-01T00:54:21.985Z,65.78417969
2022-11-01T00:55:23.275Z,65.97460938
2022-11-01T00:56:22.952Z,66.75976563
2022-11-01T00:57:47.082Z,66.60839844
2022-11-01T00:58:27.517Z,66.42871094
2022-11-01T00:59:25.723Z,66.796875
2022-11-01T01:00:25.190Z,66.76074219
2022-11-01T01:01:20.494Z,67.203125
2022-11-01T01:02:21.085Z,67.52148438
2022-11-01T01:03:17.555Z,67.078125
2022-11-01T01:04:17.423Z,66.44335938
2022-11-01T01:05:13.642Z,67.07910156
2022-11-01T01:06:15.017Z,67.51171875
2022-11-01T01:07:11.568Z,68.33007813
2022-11-01T01:08:18.854Z,67.91796875
2022-11-01T01:09:15.116Z,67.04882813
2022-11-01T01:10:20.961Z,67.08007813
2022-11-01T01:11:22.727Z,67.29394531
2022-11-01T01:12:19.197Z,67.32421875
2022-11-01T01:14:17.024Z,67.54882813
2022-11-01T01:15:26.536Z,67.265625
2022-11-01T01:16:28.586Z,67.23828125
2022-11-01T01:17:33.773Z,67.18066406
2022-11-01T01:18:26.491Z,67.90136719
2022-11-01T01:19:24.528Z,67.7421875
2022-11-01T01:20:33.840Z,68.01269531
2022-11-01T01:21:35.793Z,67.78222656
2022-11-01T01:22:30.889Z,68.24804688
2022-11-01T01:24:30.097Z,67.00488281
2022-11-01T01:25:25.706Z,67.02832031
2022-11-01T01:26:20.723Z,67.33691406
2022-11-01T01:27:21.704Z,67.68945313
2022-11-01T01:28:23.743Z,67.53417969
2022-11-01T01:29:24.484Z,67.16992188
2022-11-01T01:30:22.995Z,67.12011719
2022-11-01T01:31:25.693Z,66.97265625
2022-11-01T01:32:20.245Z,67.17871094
2022-11-01T01:33:19.853Z,67.1953125
2022-11-01T01:34:19.372Z,66.76269531
2022-11-01T01:35:19.423Z,67.37792969
2022-11-01T01:37:03.352Z,67.02636719
2022-11-01T01:37:43.219Z,66.58984375
2022-11-01T01:39:43.159Z,67.17480469
2022-11-01T01:40:38.516Z,67.28613281
2022-11-01T01:41:38.513Z,66.74414063
2022-11-01T01:42:40.383Z,66.94726563
2022-11-01T01:44:33.411Z,66.76171875
2022-11-01T01:45:34.455Z,67.30761719
2022-11-01T01:46:30.042Z,67.09960938
2022-11-01T01:47:30.139Z,66.3671875
2022-11-01T01:49:26.379Z,66.68652344
2022-11-01T01:50:23.851Z,66.48730469
2022-11-01T01:51:22.953Z,66.54296875
2022-11-01T01:52:23.593Z,66.55664063
2022-11-01T01:53:25.573Z,66.96777344
2022-11-01T01:54:27.436Z,67.03613281
2022-11-01T01:55:20.479Z,66.63378906
2022-11-01T01:56:20.539Z,66.1953125
2022-11-01T01:57:28.720Z,66.62109375
2022-11-01T01:59:28.995Z,66.62304688
2022-11-01T02:00:38.088Z,66.27246094
2022-11-01T02:01:30.156Z,66.85351563
2022-11-01T02:02:32.917Z,66.76367188
2022-11-01T02:04:31.471Z,66.28027344
2022-11-01T02:05:31.126Z,66.22363281
2022-11-01T02:06:26.531Z,66.59082031
2022-11-01T02:07:30.349Z,66.57910156
2022-11-01T02:08:27.621Z,66.76171875
2022-11-01T02:09:31.815Z,66.33886719
2022-11-01T02:10:27.627Z,66.33300781
2022-11-01T02:11:25.692Z,66.33300781
2022-11-01T02:12:27.398Z,66.4609375
2022-11-01T02:13:21.023Z,66.42871094
2022-11-01T02:14:24.403Z,66.11230469
2022-11-01T02:15:23.661Z,66.17578125
2022-11-01T02:16:18.323Z,66.12792969
2022-11-01T02:17:18.503Z,65.99804688
2022-11-01T02:18:16.226Z,66.43554688
2022-11-01T02:19:18.422Z,66.37597656
2022-11-01T02:20:15.869Z,66.87890625
2022-11-01T02:21:19.491Z,66.84375
2022-11-01T02:22:18.535Z,66.63964844
2022-11-01T02:24:58.997Z,65.65039063
2022-11-01T02:25:55.177Z,64.60449219
2022-11-01T02:26:50.997Z,63.76660156
2022-11-01T02:27:53.480Z,63.82910156
2022-11-01T02:28:45.924Z,64.07226563
2022-11-01T02:29:51.070Z,64.51757813
2022-11-01T02:30:44.631Z,64.75878906
2022-11-01T02:32:30.577Z,64.484375
2022-11-01T02:33:09.549Z,64.50097656
2022-11-01T02:34:12.248Z,65.15429688
2022-11-01T02:35:11.794Z,65.34960938
2022-11-01T02:36:09.327Z,65.49316406
2022-11-01T02:37:09.345Z,65.18847656
2022-11-01T02:38:08.308Z,65.38671875
2022-11-01T02:39:04.457Z,65.40136719
2022-11-01T02:40:05.137Z,65.86523438
2022-11-01T02:41:01.342Z,66.21289063
2022-11-01T02:42:01.025Z,66.40527344
2022-11-01T02:42:57.778Z,66.29882813
2022-11-01T02:44:06.176Z,66.34375
2022-11-01T02:45:00.933Z,66.375
2022-11-01T02:46:00.159Z,66.30273438
2022-11-01T02:47:08.104Z,66.9609375
2022-11-01T02:48:04.574Z,67.11914063
2022-11-01T02:49:08.318Z,66.89160156
2022-11-01T02:50:05.166Z,66.71582031
2022-11-01T02:51:06.952Z,67.08105469
2022-11-01T02:52:02.338Z,67.03417969
2022-11-01T02:53:04.946Z,67.31933594
2022-11-01T02:54:05.294Z,67.16113281
2022-11-01T02:54:59.247Z,67.25976563
2022-11-01T02:56:02.193Z,67.06738281
2022-11-01T02:56:54.029Z,67.08984375
2022-11-01T02:57:53.465Z,67.09179688
2022-11-01T02:59:48.427Z,67.23828125
2022-11-01T03:00:44.075Z,67.42089844
2022-11-01T03:01:46.800Z,67.61328125
2022-11-01T03:02:45.857Z,67.36230469
2022-11-01T03:03:48.393Z,67.43359375
2022-11-01T03:04:43.743Z,67.5703125
2022-11-01T03:05:45.108Z,67.48730469
2022-11-01T03:06:41.020Z,67.70605469
2022-11-01T03:08:27.418Z,67.3515625
2022-11-01T03:09:10.252Z,67.37402344
2022-11-01T03:10:13.167Z,67.10351563
2022-11-01T03:11:11.825Z,67.27636719
2022-11-01T03:12:08.926Z,67.40332031
2022-11-01T03:13:10.233Z,67.37695313
2022-11-01T03:14:05.426Z,67.52246094
2022-11-01T03:15:04.346Z,67.77050781
2022-11-01T03:15:59.040Z,67.61035156
2022-11-01T03:17:01.530Z,67.83398438
2022-11-01T03:19:49.245Z,67.49511719
2022-11-01T03:20:43.965Z,66.98242188
2022-11-01T03:21:45.444Z,67.00683594
2022-11-01T03:22:41.950Z,67.296875
2022-11-01T03:23:47.217Z,67.18359375
2022-11-01T03:24:46.057Z,67.59765625
2022-11-01T03:25:42.193Z,67.8671875
2022-11-01T03:26:45.132Z,68.04003906
2022-11-01T03:27:38.661Z,68.37890625
2022-11-01T03:28:41.741Z,68.38867188
2022-11-01T03:29:36.972Z,68.50488281
2022-11-01T03:30:38.189Z,68.6171875
2022-11-01T03:31:38.272Z,68.59277344
2022-11-01T03:32:39.838Z,68.91015625
2022-11-01T03:33:34.007Z,69.21972656
2022-11-01T03:34:33.632Z,69.046875
2022-11-01T03:35:28.988Z,69.25195313
2022-11-01T03:36:28.091Z,69.16992188
2022-11-01T03:37:22.762Z,69.35351563
2022-11-01T03:39:16.961Z,69.46875
2022-11-01T03:40:19.115Z,69.48144531
2022-11-01T03:41:14.474Z,69.48046875
2022-11-01T03:42:15.509Z,69.41015625
2022-11-01T03:43:11.027Z,69.68164063
2022-11-01T03:44:15.129Z,69.53417969
2022-11-01T03:45:10.408Z,69.6484375
2022-11-01T03:46:13.784Z,69.45996094
2022-11-01T03:47:14.618Z,69.49804688
2022-11-01T03:48:10.803Z,69.54296875
2022-11-01T03:49:10.176Z,69.58691406
2022-11-01T03:50:46.878Z,69.99707031
2022-11-01T03:51:31.436Z,69.93164063
2022-11-01T03:52:30.393Z,69.84179688
2022-11-01T03:54:35.877Z,70.171875
2022-11-01T03:55:31.190Z,70.14355469
2022-11-01T03:56:31.018Z,70.06054688
2022-11-01T03:57:30.605Z,70.33007813
2022-11-01T03:58:26.375Z,70.38964844
2022-11-01T03:59:29.927Z,70.44335938
2022-11-01T04:00:25.034Z,70.17480469
2022-11-01T04:01:22.711Z,70.20117188
2022-11-01T04:02:20.471Z,70.32714844
2022-11-01T04:03:19.439Z,70.15722656
2022-11-01T04:05:17.211Z,70.265625
2022-11-01T04:06:14.887Z,70.35546875
2022-11-01T04:07:12.861Z,70.390625
2022-11-01T04:08:10.516Z,70.34277344
2022-11-01T04:09:08.600Z,70.4140625
2022-11-01T04:10:06.030Z,70.59472656
2022-11-01T04:11:05.506Z,70.44726563
2022-11-01T04:12:03.303Z,70.12597656
2022-11-01T04:13:03.249Z,70.57714844
2022-11-01T04:14:00.808Z,70.61816406
2022-11-01T04:14:58.893Z,70.609375
2022-11-01T04:15:57.532Z,70.50488281
2022-11-01T04:16:55.482Z,70.49902344
2022-11-01T04:17:52.849Z,70.46582031
2022-11-01T04:19:55.724Z,70.69140625
2022-11-01T04:20:57.118Z,70.76757813
2022-11-01T04:22:01.630Z,70.83886719
2022-11-01T04:23:00.373Z,70.5625
2022-11-01T04:24:59.389Z,70.98730469
2022-11-01T04:25:58.169Z,70.80175781
2022-11-01T04:26:58.452Z,70.9140625
2022-11-01T04:29:19.361Z,71.16699219
2022-11-01T04:30:12.289Z,71.10742188
2022-11-01T04:31:16.827Z,70.96679688
2022-11-01T04:32:16.528Z,71.00976563
2022-11-01T04:33:19.683Z,71.17773438
2022-11-01T04:34:21.741Z,70.66796875
2022-11-01T04:35:18.561Z,70.81445313
2022-11-01T04:36:19.537Z,70.65136719
2022-11-01T04:37:15.316Z,70.87695313
2022-11-01T04:40:53.691Z,69.78710938
2022-11-01T04:41:52.886Z,69.20703125
2022-11-01T08:19:43.300Z,53.87597656
2022-11-01T08:20:22.142Z,54.36621094
2022-11-01T08:21:20.515Z,54.76269531
2022-11-01T08:22:14.116Z,55.18066406
2022-11-01T08:23:13.273Z,55.58300781
2022-11-01T08:24:06.741Z,55.77246094
2022-11-01T08:25:03.780Z,56.56152344
2022-11-01T08:26:01.345Z,57.17578125
2022-11-01T08:26:55.714Z,57.19628906
2022-11-01T08:27:51.985Z,58.08691406
2022-11-01T08:29:42.820Z,58.26269531
2022-11-01T08:30:39.129Z,57.60058594
2022-11-01T08:31:31.990Z,57.57714844
2022-11-01T08:32:32.094Z,57.84472656
2022-11-01T17:09:29.726Z,44.7109375
2022-11-01T17:10:08.365Z,44.46484375
2022-11-01T17:11:04.632Z,45.14453125
2022-11-01T17:12:04.658Z,45.49804688
2022-11-01T17:12:59.942Z,45.93457031
2022-11-01T21:05:23.495Z,48.86230469
2022-11-01T21:06:06.183Z,49.52636719
2022-11-01T21:07:05.955Z,49.79785156
2022-11-01T21:08:04.003Z,50.63183594
2022-11-01T21:08:56.792Z,51.83300781
2022-11-01T21:10:01.581Z,52.1328125
2022-11-01T21:10:55.074Z,52.89257813
2022-11-01T21:11:51.838Z,53.43554688
2022-11-01T21:12:44.459Z,53.7265625
2022-11-01T21:13:42.046Z,54.32617188
2022-11-01T21:15:29.506Z,54.84375
2022-11-01T21:16:23.855Z,54.87207031
2022-11-01T21:17:20.515Z,55.38671875
2022-11-01T21:18:14.825Z,55.5703125
2022-11-01T21:19:15.783Z,56.07128906
2022-11-01T21:21:00.510Z,56.36035156
2022-11-01T21:22:00.962Z,56.36914063
2022-11-01T21:22:54.502Z,56.43261719
2022-11-01T21:23:53.384Z,56.5546875
2022-11-01T21:25:44.652Z,56.93261719
2022-11-01T21:26:41.930Z,57.10449219
2022-11-01T21:27:46.852Z,57.34277344
2022-11-01T21:28:48.500Z,57.61816406
2022-11-01T21:30:49.060Z,58.08496094
2022-11-01T21:31:39.550Z,57.81152344
2022-11-01T21:32:38.654Z,57.82128906
2022-11-01T21:33:31.685Z,57.76757813
2022-11-01T21:35:29.394Z,58.19921875
2022-11-01T21:36:18.991Z,58.67578125
2022-11-01T21:37:17.722Z,58.47460938
2022-11-01T21:38:11.117Z,58.21582031
2022-11-01T21:39:11.104Z,57.85058594
2022-11-01T21:42:25.699Z,57.66113281
2022-11-01T21:43:09.739Z,57.71386719
2022-11-01T21:44:07.727Z,57.5234375
2022-11-01T21:45:06.331Z,57.95605469
2022-11-01T21:46:02.179Z,58.05761719
2022-11-01T21:47:04.392Z,58.29296875
2022-11-01T21:47:58.811Z,58.61914063
2022-11-01T21:48:58.156Z,58.94726563
2022-11-01T21:50:56.938Z,58.74316406
2022-11-01T21:51:52.026Z,58.54199219
2022-11-01T21:52:52.796Z,58.77734375
2022-11-01T21:53:48.124Z,58.94140625
2022-11-01T21:54:47.793Z,58.85058594
2022-11-01T21:55:42.317Z,59.10058594
2022-11-01T21:56:51.118Z,59.20898438
2022-11-01T21:57:50.307Z,59.10351563
2022-11-01T21:58:50.003Z,59.08789063
2022-11-01T22:01:52.928Z,59.68261719
2022-11-01T22:02:47.174Z,59.39648438
2022-11-01T22:03:49.341Z,59.55859375
2022-11-01T22:05:51.998Z,59.50488281
2022-11-01T22:06:49.544Z,59.66503906
2022-11-01T22:07:48.802Z,59.68652344
2022-11-01T22:08:43.876Z,59.48925781
2022-11-01T22:10:39.904Z,60.1171875
2022-11-01T22:11:36.530Z,59.71582031
2022-11-01T22:12:35.523Z,59.87792969
2022-11-01T22:13:35.059Z,59.91113281
2022-11-01T22:14:26.663Z,59.7421875
2022-11-01T22:15:34.995Z,59.76953125
2022-11-01T22:16:38.056Z,60.30371094
2022-11-01T22:17:39.499Z,59.86914063
2022-11-01T22:18:35.192Z,59.8671875
2022-11-01T22:19:34.793Z,59.78613281
2022-11-01T22:20:31.075Z,59.69824219
2022-11-01T22:21:34.875Z,59.85546875
2022-11-01T22:22:36.550Z,60.47949219
2022-11-01T22:23:39.362Z,60.046875
2022-11-01T22:25:32.276Z,60.07324219
2022-11-01T22:26:28.412Z,60.35546875
2022-11-01T22:27:29.402Z,60.67480469
2022-11-01T22:28:23.813Z,60.46875
2022-11-01T22:29:23.261Z,60.50390625
2022-11-01T22:31:22.209Z,60.36328125
2022-11-01T22:32:19.310Z,60.82714844
2022-11-01T22:33:23.000Z,60.2578125
2022-11-01T22:34:14.643Z,60.66796875
2022-11-01T22:35:58.525Z,60.96386719
2022-11-01T22:36:38.041Z,60.47363281
2022-11-01T22:37:38.880Z,60.1328125
2022-11-01T22:38:37.227Z,60.0078125
2022-11-01T22:40:48.927Z,60
2022-11-01T22:41:43.529Z,60.6171875
2022-11-01T22:42:42.601Z,60.42285156
2022-11-01T22:43:38.336Z,60.53613281
2022-11-01T22:44:40.359Z,60.34667969
2022-11-01T22:45:37.060Z,60.33398438
2022-11-01T22:46:37.575Z,60.70800781
2022-11-01T22:47:32.348Z,60.53613281
2022-11-01T22:48:29.256Z,60.5078125
2022-11-01T22:49:28.997Z,60.89746094
2022-11-01T22:52:40.307Z,59.70410156
2022-11-01T22:53:41.532Z,59.14453125
2022-11-01T22:54:43.263Z,58.796875
2022-11-01T22:55:46.084Z,58.7578125
2022-11-01T23:05:53.145Z,56.36425781
2022-11-01T23:06:18.030Z,56.41210938
2022-11-01T23:09:32.808Z,56.16699219
2022-11-01T23:14:48.763Z,55.34667969
2022-11-01T23:15:29.896Z,54.48144531
2022-11-01T23:19:49.020Z,55.2109375
2022-11-01T23:20:31.691Z,55.26464844
2022-11-01T23:21:29.900Z,55.23339844
2022-11-01T23:22:29.746Z,55.70800781
2022-11-01T23:23:25.920Z,56.296875
2022-11-01T23:24:27.645Z,57.12402344
2022-11-01T23:25:22.172Z,57.18652344
2022-11-01T23:26:21.061Z,57.78710938
2022-11-01T23:27:17.341Z,57.86132813
2022-11-01T23:28:17.118Z,58.2734375
2022-11-01T23:29:13.097Z,58.7890625
2022-11-01T23:30:16.155Z,58.83691406
2022-11-01T23:31:12.479Z,58.98632813
2022-11-01T23:32:17.264Z,59.28710938
2022-11-01T23:33:11.655Z,59.4765625
2022-11-01T23:34:16.927Z,59.43945313
